Time;durP1;ratioP1;P1;durP2;ratioP2;P2;SDS_P1;SDS_P2;PMS_P1;PMS_P2;Temp;Humidity;BMP_temperature;BMP_pressure;BME280_temperature;BME280_humidity;BME280_pressure;Samples;Min_cycle;Max_cycle;Signal;HPM_P1;HPM_P2
2023/08/03 00:00:13;;;;;;;2.00;0.80;;;16.70;99.90;;;;;;5015595;28;20201;-79
2023/08/03 00:02:39;;;;;;;2.40;1.00;;;16.70;99.90;;;;;;5015769;28;20174;-79
2023/08/03 00:05:05;;;;;;;2.93;1.00;;;16.70;99.90;;;;;;5015214;28;20648;-78
2023/08/03 00:07:32;;;;;;;3.43;1.30;;;16.70;99.90;;;;;;5015093;28;20671;-79
2023/08/03 00:09:58;;;;;;;3.70;0.90;;;16.60;99.90;;;;;;5015726;28;20177;-78
2023/08/03 00:12:23;;;;;;;3.53;1.10;;;16.70;99.90;;;;;;5018355;28;20600;-80
2023/08/03 00:14:50;;;;;;;5.47;1.00;;;16.70;99.90;;;;;;5017718;28;20703;-78
2023/08/03 00:17:16;;;;;;;3.37;0.93;;;16.80;99.90;;;;;;5018778;28;20188;-79
2023/08/03 00:19:41;;;;;;;4.33;0.97;;;16.80;99.90;;;;;;5019269;28;20244;-79
2023/08/03 00:22:08;;;;;;;2.17;0.90;;;16.90;99.90;;;;;;5018568;28;20177;-79
2023/08/03 00:24:33;;;;;;;2.63;1.03;;;16.80;99.90;;;;;;5017380;28;20656;-79
2023/08/03 00:26:59;;;;;;;1.67;0.80;;;17.00;99.90;;;;;;5017248;28;20235;-80
2023/08/03 00:29:24;;;;;;;2.47;0.80;;;16.80;99.90;;;;;;5019879;28;20177;-78
2023/08/03 00:31:50;;;;;;;4.03;0.90;;;16.80;99.90;;;;;;5017713;28;20203;-80
2023/08/03 00:34:15;;;;;;;3.23;1.10;;;16.80;99.90;;;;;;5017812;28;20173;-79
2023/08/03 00:36:41;;;;;;;2.60;1.00;;;16.80;99.90;;;;;;5018685;28;20162;-79
2023/08/03 00:39:06;;;;;;;2.43;0.77;;;16.80;99.90;;;;;;5019154;28;20192;-80
2023/08/03 00:41:32;;;;;;;4.90;1.17;;;16.90;99.90;;;;;;5019229;28;20224;-80
2023/08/03 00:43:58;;;;;;;3.60;0.87;;;16.90;99.90;;;;;;5020830;28;20181;-79
2023/08/03 00:46:24;;;;;;;3.23;0.90;;;16.90;99.90;;;;;;5023074;28;20181;-78
2023/08/03 00:48:50;;;;;;;5.83;1.20;;;16.90;99.90;;;;;;5018320;28;20200;-79
2023/08/03 00:51:15;;;;;;;5.03;0.97;;;16.90;99.90;;;;;;5017024;28;20699;-79
2023/08/03 00:53:44;;;;;;;1.27;0.90;;;17.00;99.90;;;;;;5014498;28;20177;-80
2023/08/03 00:56:10;;;;;;;3.53;1.00;;;17.00;99.90;;;;;;5016637;28;20663;-79
2023/08/03 00:58:35;;;;;;;3.47;0.60;;;17.10;99.90;;;;;;5016183;28;20173;-78
2023/08/03 01:01:01;;;;;;;3.63;0.90;;;17.00;99.90;;;;;;5016286;28;20721;-78
2023/08/03 01:03:26;;;;;;;3.03;1.00;;;17.00;99.90;;;;;;5017001;28;20675;-79
2023/08/03 01:05:52;;;;;;;1.77;0.67;;;16.90;99.90;;;;;;5016056;28;20184;-80
2023/08/03 01:08:18;;;;;;;3.10;1.00;;;16.80;99.90;;;;;;5017702;28;20259;-78
2023/08/03 01:10:43;;;;;;;2.17;1.10;;;16.80;99.90;;;;;;5017091;28;20287;-79
2023/08/03 01:13:09;;;;;;;3.97;0.97;;;16.70;99.90;;;;;;5020374;28;20671;-78
2023/08/03 01:15:34;;;;;;;1.93;0.90;;;16.60;99.90;;;;;;5020573;28;20546;-79
2023/08/03 01:18:00;;;;;;;2.10;0.93;;;16.60;99.90;;;;;;5019625;28;20176;-78
2023/08/03 01:20:27;;;;;;;1.07;0.73;;;16.60;99.90;;;;;;5020902;28;20283;-79
2023/08/03 01:22:52;;;;;;;3.50;1.00;;;16.50;99.90;;;;;;5020287;28;20188;-79
2023/08/03 01:25:18;;;;;;;2.77;1.13;;;16.40;99.90;;;;;;5018964;28;20184;-79
2023/08/03 01:27:47;;;;;;;2.57;0.90;;;16.40;99.90;;;;;;5019608;28;20261;-79
2023/08/03 01:30:12;;;;;;;3.73;0.90;;;16.60;99.90;;;;;;5020092;28;20676;-79
2023/08/03 01:32:38;;;;;;;3.27;1.30;;;16.50;99.90;;;;;;5020030;28;20177;-79
2023/08/03 01:35:06;;;;;;;4.53;0.97;;;16.50;99.90;;;;;;5021298;28;20188;-79
2023/08/03 01:37:36;;;;;;;3.37;1.17;;;16.40;99.90;;;;;;5021662;28;20524;-79
2023/08/03 01:40:03;;;;;;;3.27;1.10;;;16.40;99.90;;;;;;5019624;28;20756;-80
2023/08/03 01:42:29;;;;;;;4.23;1.23;;;16.40;99.90;;;;;;5021249;28;20280;-80
2023/08/03 01:44:54;;;;;;;5.07;1.13;;;16.40;99.90;;;;;;5018739;28;20557;-79
2023/08/03 01:47:20;;;;;;;4.73;1.20;;;16.50;99.90;;;;;;5020318;28;20200;-78
2023/08/03 01:49:45;;;;;;;5.27;1.20;;;16.40;99.90;;;;;;5019429;28;20214;-80
2023/08/03 01:52:11;;;;;;;4.80;1.20;;;16.40;99.90;;;;;;5019592;28;20259;-79
2023/08/03 01:54:36;;;;;;;3.87;1.30;;;16.40;99.90;;;;;;5020120;28;20192;-79
2023/08/03 01:57:02;;;;;;;4.23;1.30;;;16.50;99.90;;;;;;5020125;28;20177;-78
2023/08/03 01:59:27;;;;;;;8.20;1.57;;;16.40;99.90;;;;;;5019975;28;20188;-79
2023/08/03 02:01:53;;;;;;;5.47;1.27;;;16.40;99.90;;;;;;5018910;28;20273;-79
2023/08/03 02:04:18;;;;;;;4.23;1.47;;;16.50;99.90;;;;;;5019434;28;20195;-78
2023/08/03 02:06:47;;;;;;;4.77;1.47;;;16.50;99.90;;;;;;5020688;28;20609;-79
2023/08/03 02:09:13;;;;;;;6.27;1.60;;;16.50;99.90;;;;;;5021149;28;20181;-79
2023/08/03 02:11:38;;;;;;;5.27;1.53;;;16.50;99.90;;;;;;5020414;28;20201;-79
2023/08/03 02:14:04;;;;;;;5.47;1.43;;;16.50;99.90;;;;;;5019247;28;20252;-79
2023/08/03 02:16:30;;;;;;;5.33;1.40;;;16.50;99.90;;;;;;5022133;28;20177;-79
2023/08/03 02:18:55;;;;;;;4.90;1.23;;;16.50;99.90;;;;;;5018890;28;20181;-79
2023/08/03 02:21:21;;;;;;;5.30;1.70;;;16.40;99.90;;;;;;5018278;28;20364;-79
2023/08/03 02:23:46;;;;;;;4.80;1.40;;;16.50;99.90;;;;;;5019093;28;20240;-80
2023/08/03 02:26:12;;;;;;;7.27;1.67;;;16.40;99.90;;;;;;5019570;28;20188;-79
2023/08/03 02:28:37;;;;;;;3.50;1.30;;;16.40;99.90;;;;;;5019580;28;20208;-80
2023/08/03 02:31:03;;;;;;;7.37;1.73;;;16.40;99.90;;;;;;5021022;28;20189;-79
2023/08/03 02:33:29;;;;;;;5.73;1.87;;;16.50;99.90;;;;;;5021612;28;20177;-79
2023/08/03 02:35:54;;;;;;;6.87;1.60;;;16.40;99.90;;;;;;5019167;28;20656;-79
2023/08/03 02:38:20;;;;;;;5.97;1.70;;;16.40;99.90;;;;;;5020398;28;20204;-80
2023/08/03 02:40:45;;;;;;;7.53;1.90;;;16.40;99.90;;;;;;5021934;28;20211;-80
2023/08/03 02:43:11;;;;;;;5.40;1.60;;;16.50;99.90;;;;;;5020767;28;20185;-79
2023/08/03 02:45:36;;;;;;;4.57;1.37;;;16.40;99.90;;;;;;5021732;28;20188;-80
2023/08/03 02:48:02;;;;;;;4.73;1.47;;;16.40;99.90;;;;;;5021456;28;20680;-80
2023/08/03 02:50:28;;;;;;;5.80;1.47;;;16.40;99.90;;;;;;5022013;28;20242;-78
2023/08/03 02:52:53;;;;;;;6.67;1.53;;;16.40;99.90;;;;;;5019936;28;20220;-79
2023/08/03 02:55:19;;;;;;;8.60;1.73;;;16.40;99.90;;;;;;5021785;28;20184;-80
2023/08/03 02:57:44;;;;;;;4.07;1.33;;;16.40;99.90;;;;;;5020184;28;20187;-79
2023/08/03 03:00:11;;;;;;;4.80;1.47;;;16.40;99.90;;;;;;5021368;28;20201;-80
2023/08/03 03:02:36;;;;;;;6.07;1.43;;;16.40;99.90;;;;;;5022705;28;20276;-79
2023/08/03 03:05:02;;;;;;;5.23;1.47;;;16.40;99.90;;;;;;5030217;28;20549;-80
2023/08/03 03:07:31;;;;;;;5.60;1.97;;;16.40;99.90;;;;;;5021643;28;20297;-79
2023/08/03 03:09:57;;;;;;;8.80;1.83;;;16.40;99.90;;;;;;5020301;28;20169;-79
2023/08/03 03:12:23;;;;;;;5.70;1.40;;;16.40;99.90;;;;;;5019976;28;20256;-78
2023/08/03 03:14:48;;;;;;;5.43;1.50;;;16.40;99.90;;;;;;5018428;28;20180;-79
2023/08/03 03:17:15;;;;;;;4.70;1.30;;;16.60;99.90;;;;;;5020155;28;20181;-79
2023/08/03 03:19:40;;;;;;;8.83;1.67;;;16.40;99.90;;;;;;5018597;28;20599;-79
2023/08/03 03:22:06;;;;;;;5.50;1.57;;;16.40;99.90;;;;;;5018160;28;20177;-79
2023/08/03 03:24:31;;;;;;;6.23;1.53;;;16.40;99.90;;;;;;5018471;28;20184;-79
2023/08/03 03:26:57;;;;;;;4.80;1.20;;;16.40;99.90;;;;;;5022165;28;20177;-79
2023/08/03 03:29:22;;;;;;;6.63;1.40;;;16.30;99.90;;;;;;5021609;28;20181;-79
2023/08/03 03:31:48;;;;;;;5.37;1.60;;;16.30;99.90;;;;;;5018452;28;20292;-79
2023/08/03 03:34:14;;;;;;;5.00;1.40;;;16.30;99.90;;;;;;5017506;28;20173;-79
2023/08/03 03:36:39;;;;;;;5.43;1.30;;;16.40;99.90;;;;;;5021725;28;20181;-80
2023/08/03 03:39:05;;;;;;;5.83;1.20;;;16.30;99.90;;;;;;5019144;28;20227;-79
2023/08/03 03:41:31;;;;;;;9.77;1.43;;;16.40;99.90;;;;;;5021266;28;20218;-80
2023/08/03 03:43:56;;;;;;;4.40;1.30;;;16.40;99.90;;;;;;5020920;28;20249;-79
2023/08/03 03:46:22;;;;;;;3.10;1.20;;;16.40;99.90;;;;;;5018209;28;20184;-79
2023/08/03 03:48:47;;;;;;;3.27;1.10;;;16.40;99.90;;;;;;5018033;28;20705;-79
2023/08/03 03:51:14;;;;;;;5.23;1.00;;;16.40;99.90;;;;;;5018283;28;20673;-79
2023/08/03 03:53:39;;;;;;;3.37;1.10;;;16.40;99.90;;;;;;5019939;28;20173;-79
2023/08/03 03:56:05;;;;;;;3.13;0.80;;;16.40;99.90;;;;;;5018805;28;20160;-79
2023/08/03 03:58:30;;;;;;;2.83;1.00;;;16.40;99.90;;;;;;5020498;28;20192;-79
2023/08/03 04:00:56;;;;;;;3.30;1.00;;;16.50;99.90;;;;;;5019800;28;20230;-80
2023/08/03 04:03:24;;;;;;;5.30;1.13;;;16.50;99.90;;;;;;5017910;28;20250;-80
2023/08/03 04:05:49;;;;;;;4.73;1.00;;;16.50;99.90;;;;;;5018843;28;20211;-80
2023/08/03 04:08:15;;;;;;;5.53;1.07;;;16.60;99.90;;;;;;5020066;28;20196;-79
2023/08/03 04:10:40;;;;;;;2.27;1.03;;;16.60;99.90;;;;;;5018086;28;20189;-80
2023/08/03 04:13:06;;;;;;;2.80;1.03;;;16.60;99.90;;;;;;5017222;28;20181;-81
2023/08/03 04:15:31;;;;;;;3.27;1.00;;;16.70;99.90;;;;;;5017952;28;20253;-80
2023/08/03 04:17:57;;;;;;;5.03;1.10;;;16.70;99.90;;;;;;5018711;28;20185;-80
2023/08/03 04:20:22;;;;;;;3.33;0.80;;;16.70;99.90;;;;;;5018360;28;20204;-80
2023/08/03 04:22:48;;;;;;;3.63;0.90;;;16.70;99.90;;;;;;5018149;28;20280;-79
2023/08/03 04:25:13;;;;;;;3.27;0.90;;;16.60;99.90;;;;;;5016557;28;20243;-79
2023/08/03 04:27:39;;;;;;;2.30;0.90;;;16.70;99.90;;;;;;5018911;28;20196;-79
2023/08/03 04:30:05;;;;;;;2.23;1.00;;;16.60;99.90;;;;;;5017524;28;20639;-79
2023/08/03 04:32:30;;;;;;;2.70;1.00;;;16.70;99.90;;;;;;5017687;28;20177;-80
2023/08/03 04:34:56;;;;;;;2.63;0.83;;;16.70;99.90;;;;;;5018307;28;20679;-80
2023/08/03 04:37:21;;;;;;;2.23;1.10;;;16.70;99.90;;;;;;5017223;28;20619;-78
2023/08/03 04:39:49;;;;;;;5.07;0.97;;;16.70;99.90;;;;;;5018575;28;20180;-80
2023/08/03 04:42:14;;;;;;;3.27;0.93;;;16.70;99.90;;;;;;5019617;28;20173;-79
2023/08/03 04:44:40;;;;;;;3.97;1.10;;;16.70;99.90;;;;;;5017661;28;20184;-80
2023/08/03 04:47:05;;;;;;;4.10;1.03;;;16.80;99.90;;;;;;5022062;28;20192;-79
2023/08/03 04:49:31;;;;;;;1.53;0.90;;;16.80;99.90;;;;;;5021945;28;20551;-79
2023/08/03 04:51:56;;;;;;;2.33;1.00;;;16.80;99.90;;;;;;5024313;28;20197;-79
2023/08/03 04:54:22;;;;;;;3.80;1.17;;;16.80;99.90;;;;;;5023119;28;20289;-79
2023/08/03 04:56:47;;;;;;;3.57;0.90;;;16.80;99.90;;;;;;5023519;28;20247;-79
2023/08/03 04:59:13;;;;;;;2.67;0.90;;;16.80;99.90;;;;;;5022829;28;20264;-80
2023/08/03 05:01:38;;;;;;;1.27;0.70;;;16.70;99.90;;;;;;5023190;28;20197;-80
2023/08/03 05:04:04;;;;;;;2.67;0.77;;;16.80;99.90;;;;;;5022314;28;20709;-79
2023/08/03 05:06:30;;;;;;;1.43;0.80;;;16.90;99.90;;;;;;5021918;28;20267;-80
2023/08/03 05:08:56;;;;;;;2.27;1.00;;;16.80;99.90;;;;;;5022882;28;20231;-80
2023/08/03 05:11:21;;;;;;;4.10;1.20;;;16.90;99.90;;;;;;5019539;28;20255;-80
2023/08/03 05:13:47;;;;;;;3.67;0.90;;;16.90;99.90;;;;;;5020524;28;20177;-80
2023/08/03 05:16:13;;;;;;;4.20;1.10;;;16.90;99.90;;;;;;5023091;28;20195;-80
2023/08/03 05:18:38;;;;;;;2.30;0.90;;;16.90;99.90;;;;;;5024550;28;20172;-80
2023/08/03 05:21:04;;;;;;;4.80;0.90;;;16.90;99.90;;;;;;5033877;28;20264;-80
2023/08/03 05:23:29;;;;;;;1.83;1.00;;;16.90;99.90;;;;;;5032156;28;20181;-80
2023/08/03 05:25:56;;;;;;;3.23;1.03;;;16.90;99.90;;;;;;5022248;28;20667;-80
2023/08/03 05:28:23;;;;;;;1.50;0.60;;;17.00;99.90;;;;;;5021010;28;20215;-80
2023/08/03 05:30:49;;;;;;;3.53;0.83;;;16.90;99.90;;;;;;5019857;28;20192;-79
2023/08/03 05:33:15;;;;;;;4.80;0.90;;;16.90;99.90;;;;;;5020678;28;20177;-79
2023/08/03 05:35:41;;;;;;;3.30;0.70;;;17.00;99.90;;;;;;5018079;28;20193;-79
2023/08/03 05:38:07;;;;;;;2.77;0.70;;;17.00;99.90;;;;;;5022214;28;20259;-81
2023/08/03 05:40:32;;;;;;;5.93;0.90;;;17.00;99.90;;;;;;5020200;28;20247;-81
2023/08/03 05:42:58;;;;;;;2.30;0.73;;;17.00;99.90;;;;;;5021582;28;20188;-79
2023/08/03 05:45:36;;;;;;;2.33;0.70;;;17.00;99.90;;;;;;5020592;28;20208;-79
2023/08/03 05:48:03;;;;;;;4.80;0.83;;;17.00;99.90;;;;;;5020650;28;20227;-80
2023/08/03 05:50:29;;;;;;;2.70;1.00;;;17.00;99.90;;;;;;5020149;28;20296;-81
2023/08/03 05:52:56;;;;;;;5.03;0.97;;;17.00;99.90;;;;;;5018064;28;20637;-79
2023/08/03 05:55:22;;;;;;;3.57;0.70;;;17.00;99.90;;;;;;5018778;28;20188;-79
2023/08/03 05:57:47;;;;;;;2.50;0.53;;;17.00;99.90;;;;;;5015481;28;20181;-78
2023/08/03 06:00:19;;;;;;;5.37;0.87;;;17.00;99.90;;;;;;5015194;28;20626;-77
2023/08/03 06:02:46;;;;;;;1.53;0.70;;;17.00;99.90;;;;;;5016300;28;20165;-78
2023/08/03 06:05:37;;;;;;;3.67;1.10;;;16.90;99.90;;;;;;5016600;28;20173;-78
2023/08/03 06:08:15;;;;;;;4.03;0.90;;;16.90;99.90;;;;;;5014419;28;20212;-78
2023/08/03 06:10:42;;;;;;;2.60;0.80;;;16.90;99.90;;;;;;5014530;28;20196;-77
2023/08/03 06:13:11;;;;;;;2.07;1.00;;;16.80;99.90;;;;;;5014363;28;20231;-77
2023/08/03 06:15:37;;;;;;;1.10;0.70;;;16.70;99.90;;;;;;5015498;28;20180;-78
2023/08/03 06:18:05;;;;;;;2.70;1.10;;;16.60;99.90;;;;;;5014260;28;20185;-78
2023/08/03 06:20:31;;;;;;;1.20;0.90;;;16.50;99.90;;;;;;5015799;28;20205;-78
2023/08/03 06:22:56;;;;;;;1.70;0.80;;;16.40;99.90;;;;;;5014044;28;20227;-78
2023/08/03 06:25:22;;;;;;;2.37;0.80;;;16.40;99.90;;;;;;5015374;28;20185;-77
2023/08/03 06:27:51;;;;;;;2.37;0.73;;;16.40;99.90;;;;;;5014022;28;20215;-78
2023/08/03 06:30:17;;;;;;;1.97;1.07;;;16.40;99.90;;;;;;5014003;28;20328;-78
2023/08/03 06:32:43;;;;;;;3.20;1.00;;;16.40;99.90;;;;;;5014368;28;20188;-78
2023/08/03 06:35:40;;;;;;;3.07;1.07;;;16.30;99.90;;;;;;5014533;28;20585;-78
2023/08/03 06:38:09;;;;;;;3.70;0.93;;;16.30;99.90;;;;;;5015787;28;20161;-78
2023/08/03 06:40:35;;;;;;;2.33;1.10;;;16.30;99.90;;;;;;5015578;28;20258;-78
2023/08/03 06:43:01;;;;;;;2.77;1.00;;;16.30;99.90;;;;;;5015839;28;20181;-78
2023/08/03 06:45:29;;;;;;;4.37;0.90;;;16.30;99.90;;;;;;5014273;28;20188;-78
2023/08/03 06:47:55;;;;;;;3.20;1.03;;;16.30;99.90;;;;;;5014120;28;20304;-78
2023/08/03 06:50:21;;;;;;;6.43;1.27;;;16.30;99.90;;;;;;5014401;28;20687;-79
2023/08/03 06:52:47;;;;;;;2.27;1.00;;;16.30;99.90;;;;;;5015521;28;20173;-79
2023/08/03 06:55:12;;;;;;;4.50;1.13;;;16.30;99.90;;;;;;5015000;28;20292;-78
2023/08/03 06:57:38;;;;;;;3.67;1.10;;;16.30;99.90;;;;;;5015084;28;20179;-78
2023/08/03 07:00:05;;;;;;;1.83;0.90;;;16.40;99.90;;;;;;5015241;28;20622;-78
2023/08/03 07:02:30;;;;;;;3.77;1.20;;;16.30;99.90;;;;;;5015093;28;20177;-78
2023/08/03 07:04:56;;;;;;;5.37;1.30;;;16.40;99.90;;;;;;5013474;28;20661;-78
2023/08/03 07:07:23;;;;;;;3.97;1.20;;;16.50;99.90;;;;;;5013783;28;20561;-78
2023/08/03 07:09:48;;;;;;;6.10;1.30;;;16.30;99.90;;;;;;5015508;28;20227;-78
2023/08/03 07:12:15;;;;;;;2.97;1.63;;;16.40;99.90;;;;;;5015519;28;20177;-78
2023/08/03 07:14:41;;;;;;;2.57;0.90;;;16.40;99.90;;;;;;5014212;28;20176;-78
2023/08/03 07:17:07;;;;;;;3.63;1.43;;;16.50;99.90;;;;;;5015384;28;20200;-78
2023/08/03 07:19:32;;;;;;;1.60;0.87;;;16.50;99.90;;;;;;5014206;28;20193;-78
2023/08/03 07:21:58;;;;;;;2.83;0.80;;;16.50;99.90;;;;;;5015149;28;20204;-78
2023/08/03 07:24:23;;;;;;;2.30;1.00;;;16.60;99.90;;;;;;5015202;28;20172;-78
2023/08/03 07:26:49;;;;;;;3.67;1.00;;;16.70;99.90;;;;;;5015237;28;20173;-78
2023/08/03 07:29:15;;;;;;;2.17;0.83;;;16.70;99.90;;;;;;5013624;28;20611;-78
2023/08/03 07:31:41;;;;;;;3.53;1.13;;;16.60;99.90;;;;;;5013455;28;20197;-78
2023/08/03 07:34:07;;;;;;;3.07;1.23;;;16.70;99.90;;;;;;5014055;28;20227;-78
2023/08/03 07:36:32;;;;;;;3.93;1.10;;;16.70;99.90;;;;;;5017500;28;20239;-78
2023/08/03 07:38:58;;;;;;;1.50;0.63;;;16.80;99.90;;;;;;5017403;28;20184;-80
2023/08/03 07:41:23;;;;;;;5.00;1.30;;;16.70;99.90;;;;;;5015948;28;20230;-78
2023/08/03 07:43:52;;;;;;;3.07;1.20;;;16.80;99.90;;;;;;5014564;28;20239;-78
2023/08/03 07:46:18;;;;;;;2.60;1.03;;;16.80;99.90;;;;;;5012998;28;20184;-78
2023/08/03 07:48:43;;;;;;;2.53;1.23;;;16.90;99.90;;;;;;5014333;28;20803;-78
2023/08/03 07:51:16;;;;;;;4.37;1.73;;;16.90;99.90;;;;;;5013053;28;20695;-77
2023/08/03 07:53:42;;;;;;;4.07;1.43;;;16.90;99.90;;;;;;5014526;28;20260;-78
2023/08/03 07:56:18;;;;;;;4.50;1.70;;;17.00;99.90;;;;;;5012756;28;20767;-78
2023/08/03 07:58:45;;;;;;;7.33;1.50;;;17.00;99.90;;;;;;5014178;28;20215;-78
2023/08/03 08:01:11;;;;;;;6.07;1.50;;;17.10;99.90;;;;;;5013925;28;20193;-77
2023/08/03 08:03:38;;;;;;;4.33;1.57;;;17.10;99.90;;;;;;5013878;28;20253;-78
2023/08/03 08:06:05;;;;;;;4.37;1.10;;;17.20;99.90;;;;;;5014878;28;20326;-79
2023/08/03 08:08:31;;;;;;;4.80;1.23;;;17.20;99.90;;;;;;5013372;28;20200;-79
2023/08/03 08:10:57;;;;;;;4.57;1.27;;;17.20;99.90;;;;;;5013872;28;20211;-78
2023/08/03 08:13:22;;;;;;;2.67;1.27;;;17.40;99.90;;;;;;5014260;28;20177;-78
2023/08/03 08:15:48;;;;;;;2.47;1.17;;;17.50;99.90;;;;;;5014193;28;20637;-78
2023/08/03 08:18:13;;;;;;;1.87;1.10;;;17.50;99.90;;;;;;5010556;28;20196;-77
2023/08/03 08:20:39;;;;;;;2.93;1.40;;;17.60;99.90;;;;;;5011193;28;20216;-77
2023/08/03 08:23:05;;;;;;;5.23;1.33;;;17.60;99.90;;;;;;4997788;28;20696;-78
2023/08/03 08:25:37;;;;;;;5.33;1.33;;;17.70;99.90;;;;;;4997671;28;20184;-78
2023/08/03 08:28:03;;;;;;;6.43;1.40;;;17.70;99.90;;;;;;5012844;28;20205;-79
2023/08/03 08:30:29;;;;;;;1.93;1.30;;;17.70;99.90;;;;;;5013499;28;20205;-78
2023/08/03 08:32:54;;;;;;;3.87;1.20;;;17.70;99.90;;;;;;5014920;28;20227;-78
2023/08/03 08:35:20;;;;;;;3.60;1.30;;;17.70;99.90;;;;;;4995500;28;20201;-78
2023/08/03 08:37:46;;;;;;;3.47;1.10;;;17.60;99.90;;;;;;5013766;28;20191;-77
2023/08/03 08:40:11;;;;;;;2.00;1.10;;;17.60;99.90;;;;;;5013774;28;20207;-77
2023/08/03 08:42:38;;;;;;;4.70;1.40;;;17.60;99.90;;;;;;5014400;28;20591;-77
2023/08/03 08:45:06;;;;;;;3.70;1.50;;;17.70;99.90;;;;;;5019351;28;20184;-78
2023/08/03 08:47:32;;;;;;;2.27;0.90;;;17.70;99.90;;;;;;5016002;28;20208;-77
2023/08/03 08:49:58;;;;;;;4.40;1.20;;;17.70;99.90;;;;;;5018296;28;20177;-78
2023/08/03 08:52:25;;;;;;;2.60;1.03;;;17.80;99.90;;;;;;5020337;28;20176;-78
2023/08/03 08:55:09;;;;;;;5.13;1.37;;;17.80;99.90;;;;;;5012862;28;20184;-78
2023/08/03 08:57:34;;;;;;;3.70;1.40;;;17.90;99.90;;;;;;5017131;28;20173;-78
2023/08/03 09:00:05;;;;;;;6.40;1.20;;;18.00;99.90;;;;;;5013813;28;20197;-78
2023/08/03 09:02:31;;;;;;;5.50;1.00;;;18.00;99.90;;;;;;5014060;28;20161;-78
2023/08/03 09:04:56;;;;;;;2.70;1.13;;;18.10;99.90;;;;;;5011902;28;20239;-78
2023/08/03 09:07:22;;;;;;;2.03;1.13;;;18.10;99.90;;;;;;5013322;28;20244;-79
2023/08/03 09:09:48;;;;;;;3.70;1.50;;;18.10;99.90;;;;;;5013671;28;20173;-78
2023/08/03 09:12:26;;;;;;;6.57;1.30;;;18.10;99.90;;;;;;5012434;28;20212;-77
2023/08/03 09:14:52;;;;;;;3.97;0.93;;;18.10;99.90;;;;;;5013672;28;20180;-78
2023/08/03 09:17:19;;;;;;;4.73;1.30;;;18.10;99.90;;;;;;5013362;28;20173;-79
2023/08/03 09:19:45;;;;;;;2.40;0.70;;;18.30;99.90;;;;;;5013721;28;20177;-78
2023/08/03 09:22:11;;;;;;;3.67;0.90;;;18.20;99.90;;;;;;5012370;28;20623;-78
2023/08/03 09:24:37;;;;;;;4.13;0.90;;;18.30;99.90;;;;;;5013485;28;20187;-79
2023/08/03 09:27:04;;;;;;;3.67;0.80;;;18.30;99.90;;;;;;5013685;28;20264;-79
2023/08/03 09:29:31;;;;;;;3.37;1.10;;;18.40;99.90;;;;;;5012192;28;20236;-78
2023/08/03 09:32:02;;;;;;;2.30;1.00;;;18.50;99.90;;;;;;5014032;28;20201;-78
2023/08/03 09:34:38;;;;;;;1.77;1.10;;;18.50;99.90;;;;;;5016846;28;20170;-78
2023/08/03 09:37:06;;;;;;;2.90;1.13;;;18.50;99.90;;;;;;5017285;28;20176;-79
2023/08/03 09:39:34;;;;;;;4.67;1.00;;;18.40;99.90;;;;;;5016160;28;20233;-78
2023/08/03 09:42:05;;;;;;;4.63;1.67;;;18.30;99.90;;;;;;5017164;28;20676;-79
2023/08/03 09:44:33;;;;;;;2.67;1.40;;;18.30;99.90;;;;;;5017431;28;20204;-79
2023/08/03 09:47:00;;;;;;;2.13;1.10;;;18.40;99.90;;;;;;5017244;28;20255;-78
2023/08/03 09:49:26;;;;;;;2.97;1.20;;;18.20;99.90;;;;;;5017281;28;20260;-78
2023/08/03 09:51:55;;;;;;;4.03;1.30;;;18.30;99.90;;;;;;5017731;28;20189;-78
2023/08/03 09:54:56;;;;;;;4.93;1.10;;;18.30;99.90;;;;;;5017691;28;20172;-78
2023/08/03 09:57:29;;;;;;;3.40;1.20;;;18.30;99.90;;;;;;5021571;28;20280;-78
2023/08/03 10:00:01;;;;;;;5.27;1.57;;;18.40;99.90;;;;;;5017630;28;20544;-78
2023/08/03 10:02:29;;;;;;;3.87;1.10;;;18.40;99.90;;;;;;5016762;28;20166;-78
2023/08/03 10:05:00;;;;;;;2.40;1.00;;;18.50;99.90;;;;;;5016463;28;20177;-78
2023/08/03 10:07:39;;;;;;;2.90;1.10;;;18.50;99.90;;;;;;5016261;28;20204;-79
2023/08/03 10:10:05;;;;;;;2.50;1.27;;;18.50;99.90;;;;;;5014634;28;20193;-79
2023/08/03 10:12:38;;;;;;;4.63;1.23;;;18.40;99.90;;;;;;5016386;28;20643;-78
2023/08/03 10:15:07;;;;;;;4.17;1.27;;;18.30;99.90;;;;;;5015250;28;20266;-78
2023/08/03 10:17:32;;;;;;;3.03;1.27;;;18.20;99.90;;;;;;5016184;28;20181;-78
2023/08/03 10:20:00;;;;;;;2.90;1.53;;;18.20;99.90;;;;;;5016431;28;20617;-80
2023/08/03 10:22:25;;;;;;;3.33;1.30;;;18.10;99.90;;;;;;5016698;28;20255;-80
2023/08/03 10:25:19;;;;;;;3.80;1.17;;;18.10;99.90;;;;;;5017108;28;20216;-80
2023/08/03 10:28:13;;;;;;;2.37;1.00;;;18.20;99.90;;;;;;5016536;28;20672;-78
2023/08/03 10:31:07;;;;;;;3.97;1.40;;;18.10;99.90;;;;;;5015971;28;20291;-78
2023/08/03 10:33:51;;;;;;;3.03;1.40;;;18.30;99.90;;;;;;5014522;28;20176;-78
2023/08/03 10:38:55;;;;;;;5.20;1.30;;;18.30;99.90;;;;;;5016219;28;20173;-77
2023/08/03 10:41:21;;;;;;;4.70;1.60;;;18.30;99.90;;;;;;5015886;28;20702;-78
2023/08/03 10:44:05;;;;;;;1.73;1.30;;;18.40;99.90;;;;;;5015379;28;20173;-78
2023/08/03 10:46:42;;;;;;;2.33;1.40;;;18.40;99.90;;;;;;5015319;28;20200;-80
2023/08/03 10:49:22;;;;;;;7.30;1.53;;;18.30;99.90;;;;;;5014795;28;20731;-80
2023/08/03 10:52:17;;;;;;;3.87;1.40;;;18.20;99.90;;;;;;5016164;28;20263;-80
2023/08/03 10:54:44;;;;;;;4.67;1.40;;;18.20;99.90;;;;;;5014103;28;20177;-80
2023/08/03 10:57:10;;;;;;;4.80;1.73;;;18.10;99.90;;;;;;5014391;28;20173;-80
2023/08/03 10:59:37;;;;;;;5.83;1.90;;;18.10;99.90;;;;;;5014664;28;20223;-80
2023/08/03 11:02:15;;;;;;;5.70;1.80;;;18.10;99.90;;;;;;5016061;28;20197;-79
2023/08/03 11:04:42;;;;;;;4.97;1.63;;;18.10;99.90;;;;;;5014852;28;20169;-80
2023/08/03 11:07:10;;;;;;;4.53;1.70;;;18.10;99.90;;;;;;5015745;28;20169;-80
2023/08/03 11:09:36;;;;;;;7.17;1.83;;;18.10;99.90;;;;;;5016010;28;20204;-80
2023/08/03 11:12:07;;;;;;;4.07;1.60;;;18.10;99.90;;;;;;5015958;28;20189;-80
2023/08/03 11:14:34;;;;;;;5.43;1.30;;;18.20;99.90;;;;;;5015749;28;20253;-80
2023/08/03 11:16:59;;;;;;;6.70;1.70;;;18.40;99.90;;;;;;5014135;28;20207;-80
2023/08/03 11:19:32;;;;;;;11.07;1.67;;;18.10;99.90;;;;;;5013853;28;20660;-80
2023/08/03 11:22:00;;;;;;;6.33;1.53;;;18.20;99.90;;;;;;5013856;28;20754;-80
2023/08/03 11:24:30;;;;;;;4.57;1.40;;;18.30;99.90;;;;;;5014387;28;20268;-81
2023/08/03 11:26:55;;;;;;;7.87;1.73;;;18.30;99.90;;;;;;5014153;28;20276;-80
2023/08/03 11:29:21;;;;;;;4.70;1.53;;;18.40;99.90;;;;;;5015639;28;20212;-80
2023/08/03 11:31:47;;;;;;;5.53;1.50;;;18.40;99.90;;;;;;5015584;28;20193;-80
2023/08/03 11:34:14;;;;;;;3.23;1.20;;;18.50;99.90;;;;;;5015287;28;20188;-80
2023/08/03 11:36:50;;;;;;;3.47;1.50;;;18.40;99.90;;;;;;5015628;28;20268;-80
2023/08/03 11:39:16;;;;;;;9.00;1.80;;;18.60;99.90;;;;;;5015358;28;20673;-79
2023/08/03 11:41:42;;;;;;;4.30;1.40;;;18.60;99.90;;;;;;5015513;28;20271;-79
2023/08/03 11:44:09;;;;;;;5.57;1.70;;;18.60;99.90;;;;;;5014195;28;20648;-80
2023/08/03 11:46:34;;;;;;;3.20;1.37;;;18.60;99.90;;;;;;5015330;28;20239;-80
2023/08/03 11:49:02;;;;;;;3.77;1.47;;;18.60;99.90;;;;;;5013660;28;20204;-79
2023/08/03 11:51:37;;;;;;;2.63;1.17;;;18.80;99.90;;;;;;5015316;28;20185;-80
2023/08/03 11:54:04;;;;;;;4.53;1.20;;;18.70;99.90;;;;;;5013724;28;20259;-81
2023/08/03 11:56:30;;;;;;;1.60;0.80;;;18.70;99.90;;;;;;5014682;28;20173;-81
2023/08/03 11:59:01;;;;;;;4.77;1.30;;;18.70;99.90;;;;;;5015482;28;20255;-79
2023/08/03 12:01:27;;;;;;;2.53;1.20;;;18.80;99.90;;;;;;5015654;28;20219;-80
2023/08/03 12:04:09;;;;;;;2.33;1.10;;;18.80;99.90;;;;;;5015261;28;20173;-80
2023/08/03 12:06:53;;;;;;;3.37;0.70;;;18.80;99.90;;;;;;5015956;28;20185;-81
2023/08/03 12:09:27;;;;;;;1.40;1.00;;;18.90;99.90;;;;;;5014991;28;20288;-79
2023/08/03 12:12:03;;;;;;;1.77;0.80;;;18.90;99.90;;;;;;5020344;28;20201;-80
2023/08/03 12:14:29;;;;;;;1.57;1.00;;;18.90;99.90;;;;;;5020457;28;20172;-80
2023/08/03 12:16:54;;;;;;;2.43;1.00;;;19.00;99.90;;;;;;5015155;28;20170;-80
2023/08/03 12:19:20;;;;;;;3.37;1.13;;;19.00;99.90;;;;;;5012952;28;20188;-80
2023/08/03 12:21:46;;;;;;;1.83;1.10;;;19.00;99.90;;;;;;5013110;28;20263;-81
2023/08/03 12:24:12;;;;;;;4.83;1.17;;;18.90;99.90;;;;;;5014651;28;20185;-80
2023/08/03 12:26:40;;;;;;;3.63;1.10;;;18.80;99.90;;;;;;5013350;28;20188;-80
2023/08/03 12:29:06;;;;;;;2.57;0.97;;;18.80;99.90;;;;;;5013589;28;20556;-80
2023/08/03 12:31:32;;;;;;;2.53;1.17;;;18.80;99.90;;;;;;5015233;28;20193;-80
2023/08/03 12:33:58;;;;;;;2.07;1.13;;;18.90;99.90;;;;;;5014746;28;20174;-80
2023/08/03 12:36:25;;;;;;;3.87;1.10;;;18.90;99.90;;;;;;5014635;28;20573;-79
2023/08/03 12:38:51;;;;;;;3.63;1.00;;;18.90;99.90;;;;;;5014635;28;20183;-80
2023/08/03 12:41:19;;;;;;;4.73;1.10;;;19.10;99.90;;;;;;5014510;28;20223;-80
2023/08/03 12:43:45;;;;;;;1.30;0.90;;;19.10;99.90;;;;;;5014581;28;20196;-80
2023/08/03 12:46:11;;;;;;;2.27;0.80;;;19.20;99.90;;;;;;5014766;28;20193;-80
2023/08/03 12:48:36;;;;;;;1.90;1.17;;;19.30;99.90;;;;;;5013387;28;20201;-81
2023/08/03 12:51:02;;;;;;;5.10;1.13;;;19.30;99.90;;;;;;5013382;28;20208;-80